Terminal Aerodrome Forecast
Issued by NWS

Home | Current Version | Previous Version | Text Only | Print | Product List | Glossary On
Versions: 1 2 3 4 5 6 7 8 9 10 11 12 13 14 15
269
FTUS43 KDLH 171720
TAFHIB
TAF
KHIB 171720Z 1718/1818 21007G14KT P6SM FEW250
     FM180000 22007KT P6SM SKC
     FM180400 22009KT P6SM SKC WS020/23040KT
     FM181400 23014G22KT P6SM BKN200=

USA.gov is the U.S. government's official web portal to all federal, state and local government web resources and services.